Time;durP1;ratioP1;P1;durP2;ratioP2;P2;SDS_P1;SDS_P2;PMS_P1;PMS_P2;Temp;Humidity;BMP_temperature;BMP_pressure;BME280_temperature;BME280_humidity;BME280_pressure;Samples;Min_cycle;Max_cycle;Signal;HPM_P1;HPM_P2
2023/09/09 00:01:57;;;;;;;;;20.00;18.00;;;;;-143.90;95.52;75267.31;4916237;28;102124;-74
2023/09/09 00:04:23;;;;;;;;;18.75;18.00;;;;;-143.90;96.31;75275.59;4929148;28;102192;-75
2023/09/09 00:06:50;;;;;;;;;15.75;14.00;;;;;-143.90;96.48;75271.47;4929015;28;103437;-74
2023/09/09 00:09:17;;;;;;;;;19.00;17.50;;;;;-143.90;97.50;75279.72;4924092;28;102398;-75
2023/09/09 00:11:43;;;;;;;;;21.75;19.50;;;;;-143.90;98.39;75296.25;4925275;28;102259;-74
2023/09/09 00:14:10;;;;;;;;;27.00;25.25;;;;;-143.90;99.03;75288.00;4918851;28;102034;-74
2023/09/09 00:16:36;;;;;;;;;25.50;24.00;;;;;-143.90;99.80;75290.06;4561861;28;10000853;-74
2023/09/09 00:19:03;;;;;;;;;25.75;24.00;;;;;-143.90;100.00;75285.94;4930840;28;103511;-74
2023/09/09 00:21:30;;;;;;;;;22.50;20.50;;;;;-143.90;100.00;75281.78;4924134;28;103616;-74
2023/09/09 00:23:57;;;;;;;;;26.50;25.75;;;;;-143.90;100.00;75283.84;4932531;28;102972;-74
2023/09/09 00:26:27;;;;;;;;;24.25;19.25;;;;;-143.90;100.00;75279.72;4922565;28;102809;-74
2023/09/09 00:28:54;;;;;;;;;24.25;23.25;;;;;-143.90;100.00;75281.78;4933497;28;103990;-74
2023/09/09 00:31:21;;;;;;;;;24.75;23.50;;;;;-143.90;100.00;75277.66;4908060;28;102671;-73
2023/09/09 00:33:47;;;;;;;;;26.25;25.00;;;;;-143.90;99.40;75279.72;4912363;28;103590;-74
2023/09/09 00:36:14;;;;;;;;;24.75;23.25;;;;;-143.90;99.03;75288.00;4921198;28;102203;-73
2023/09/09 00:38:41;;;;;;;;;28.25;25.00;;;;;-143.90;98.84;75294.19;4924162;28;103986;-74
2023/09/09 00:41:13;;;;;;;;;21.50;21.00;;;;;-143.90;98.61;75302.47;4926442;28;103235;-74
2023/09/09 00:43:40;;;;;;;;;23.00;21.50;;;;;-143.90;98.32;75304.53;4908272;28;103874;-75
2023/09/09 00:46:08;;;;;;;;;18.75;16.50;;;;;-143.90;97.80;75302.47;4931366;28;102606;-75
2023/09/09 00:48:36;;;;;;;;;18.00;17.00;;;;;-143.90;97.47;75290.06;4926716;28;103949;-75
2023/09/09 00:51:10;;;;;;;;;12.75;12.50;;;;;-143.90;96.79;75300.41;4906340;28;102531;-75
2023/09/09 00:53:39;;;;;;;;;17.25;15.50;;;;;-143.90;97.01;75314.88;4916628;28;103466;-75
2023/09/09 00:56:06;;;;;;;;;26.75;24.25;;;;;-143.90;97.97;75327.28;4904937;28;103623;-75
2023/09/09 00:58:32;;;;;;;;;29.00;23.00;;;;;-143.90;97.52;75323.16;4922709;28;104119;-74
2023/09/09 01:01:01;;;;;;;;;20.25;17.50;;;;;-143.90;97.39;75316.94;4930046;28;103265;-75
2023/09/09 01:03:29;;;;;;;;;15.25;15.00;;;;;-143.90;96.93;75308.66;4926957;28;102003;-73
2023/09/09 01:05:56;;;;;;;;;15.00;14.75;;;;;-143.90;95.78;75316.94;4924801;28;102127;-73
2023/09/09 01:08:27;;;;;;;;;14.50;14.00;;;;;-143.90;95.71;75308.66;4923128;28;104210;-73
2023/09/09 01:10:55;;;;;;;;;14.00;12.75;;;;;-143.90;95.09;75308.66;4903436;28;102301;-73
2023/09/09 01:13:22;;;;;;;;;14.25;11.75;;;;;-143.90;94.38;75304.53;4925170;28;105325;-74
2023/09/09 01:15:49;;;;;;;;;13.00;12.25;;;;;-143.90;93.89;75308.66;4919614;28;102617;-74
2023/09/09 01:18:17;;;;;;;;;15.00;13.25;;;;;-143.90;93.42;75312.81;4918657;28;104341;-74
2023/09/09 01:20:52;;;;;;;;;14.00;12.50;;;;;-143.90;93.81;75325.22;4915357;28;101877;-74
2023/09/09 01:23:19;;;;;;;;;15.75;15.00;;;;;-143.90;94.96;75339.69;4929905;28;102317;-73
2023/09/09 01:25:45;;;;;;;;;18.00;16.50;;;;;-143.90;95.50;75341.75;4937531;28;102271;-73
2023/09/09 01:28:12;;;;;;;;;14.75;14.75;;;;;-143.90;96.27;75337.63;4930967;28;108615;-73
2023/09/09 01:30:39;;;;;;;;;10.75;9.50;;;;;-143.90;96.32;75333.47;4945965;28;102437;-74
2023/09/09 01:33:05;;;;;;;;;10.00;10.00;;;;;-143.90;95.26;75335.53;4929452;28;103739;-74
2023/09/09 01:35:32;;;;;;;;;13.75;12.00;;;;;-143.90;94.61;75337.63;4927565;28;102094;-74
2023/09/09 01:37:59;;;;;;;;;12.00;11.50;;;;;-143.90;93.61;75329.34;4933175;28;103975;-74
2023/09/09 01:40:25;;;;;;;;;11.00;10.50;;;;;-143.90;92.76;75331.41;4926747;28;102426;-73
2023/09/09 01:42:52;;;;;;;;;11.25;10.75;;;;;-143.90;93.23;75329.34;4934668;28;102786;-74
2023/09/09 01:45:19;;;;;;;;;14.25;12.75;;;;;-143.90;93.72;75341.75;4937125;28;103412;-73
2023/09/09 01:47:45;;;;;;;;;11.50;11.00;;;;;-143.90;94.27;75341.75;4935437;28;104260;-73
2023/09/09 01:50:12;;;;;;;;;9.25;7.00;;;;;-143.90;95.07;75341.75;4933832;28;103599;-73
2023/09/09 01:52:39;;;;;;;;;11.50;11.50;;;;;-143.90;95.07;75350.03;4927077;28;102458;-74
2023/09/09 01:55:06;;;;;;;;;10.50;9.75;;;;;-143.90;95.61;75356.22;4936621;28;102176;-74
2023/09/09 01:57:33;;;;;;;;;12.50;11.75;;;;;-143.90;96.46;75366.56;4929984;28;104109;-74
2023/09/09 02:00:00;;;;;;;;;13.00;12.00;;;;;-143.90;96.79;75381.03;4930728;28;103729;-74
2023/09/09 02:02:26;;;;;;;;;16.50;15.00;;;;;-143.90;97.23;75372.75;4931588;28;103065;-74
2023/09/09 02:04:53;;;;;;;;;12.75;12.25;;;;;-143.90;97.36;75381.03;4937539;28;102225;-75
2023/09/09 02:07:20;;;;;;;;;14.50;13.50;;;;;-143.90;97.22;75378.97;4931478;28;103791;-75
2023/09/09 02:09:47;;;;;;;;;8.00;6.75;;;;;-143.90;97.38;75370.69;4934198;28;102305;-74
2023/09/09 02:12:13;;;;;;;;;11.00;9.50;;;;;-143.90;96.87;75368.63;4934997;28;102934;-75
2023/09/09 02:14:40;;;;;;;;;10.50;9.25;;;;;-143.90;96.35;75366.56;4931837;28;102731;-75
2023/09/09 02:17:08;;;;;;;;;11.00;9.75;;;;;-143.90;96.38;75366.56;4933538;28;104515;-74
2023/09/09 02:19:35;;;;;;;;;8.00;8.00;;;;;-143.90;95.96;75362.44;4919468;28;102165;-74
2023/09/09 02:22:02;;;;;;;;;10.50;8.25;;;;;-143.90;95.88;75354.16;4929399;28;105148;-75
2023/09/09 02:24:28;;;;;;;;;10.50;10.25;;;;;-143.90;94.70;75364.50;4931874;28;102555;-74
2023/09/09 02:26:55;;;;;;;;;4.00;4.00;;;;;-143.90;93.13;75366.56;4935124;28;106566;-75
2023/09/09 02:29:22;;;;;;;;;7.75;7.75;;;;;-143.90;92.05;75378.97;4933708;28;102055;-75
2023/09/09 02:31:49;;;;;;;;;8.75;8.75;;;;;-143.90;92.25;75374.84;4931098;28;102878;-75
2023/09/09 02:34:16;;;;;;;;;9.75;9.25;;;;;-143.90;92.10;75378.97;4950006;28;102523;-75
2023/09/09 02:36:44;;;;;;;;;5.00;5.00;;;;;-143.90;93.68;75383.09;4923430;28;109514;-75
2023/09/09 02:39:11;;;;;;;;;9.00;8.00;;;;;-143.90;94.49;75395.50;4937204;28;102429;-75
2023/09/09 02:41:37;;;;;;;;;13.25;10.00;;;;;-143.90;94.80;75391.38;4927397;28;103051;-74
2023/09/09 02:44:04;;;;;;;;;7.25;6.50;;;;;-143.90;95.42;75389.31;4943683;28;102641;-74
2023/09/09 02:46:31;;;;;;;;;10.50;8.00;;;;;-143.90;95.26;75383.09;4928436;28;104226;-75
2023/09/09 02:48:58;;;;;;;;;8.00;8.00;;;;;-143.90;94.66;75381.03;4924363;28;102146;-74
2023/09/09 02:51:25;;;;;;;;;5.50;5.00;;;;;-143.90;95.04;75374.84;4931108;28;102726;-75
2023/09/09 02:53:52;;;;;;;;;5.25;5.25;;;;;-143.90;93.78;75387.22;4929434;28;102411;-75
2023/09/09 02:56:18;;;;;;;;;5.00;4.25;;;;;-143.90;92.61;75387.22;4946069;28;104168;-75
2023/09/09 02:58:45;;;;;;;;;7.00;6.50;;;;;-143.90;91.18;75389.31;4935390;28;102158;-75
2023/09/09 03:01:12;;;;;;;;;7.75;7.75;;;;;-143.90;92.05;75389.31;4925412;28;104787;-74
2023/09/09 03:03:38;;;;;;;;;9.75;8.25;;;;;-143.90;92.38;75399.63;4932330;28;102019;-74
2023/09/09 03:06:10;;;;;;;;;7.00;6.00;;;;;-143.90;92.97;75391.38;4927325;28;104137;-75
2023/09/09 03:08:36;;;;;;;;;9.25;8.00;;;;;-143.90;92.42;75395.50;4935766;28;104469;-74
2023/09/09 03:11:03;;;;;;;;;10.00;8.25;;;;;-143.90;92.12;75405.84;4929573;28;102014;-75
2023/09/09 03:13:30;;;;;;;;;8.00;7.50;;;;;-143.90;91.53;75403.78;4930837;28;102137;-75
2023/09/09 03:15:57;;;;;;;;;12.00;10.50;;;;;-143.90;91.35;75418.25;4928643;28;104173;-74
2023/09/09 03:18:24;;;;;;;;;8.75;8.25;;;;;-143.90;91.87;75424.44;4935380;28;103243;-74
2023/09/09 03:20:51;;;;;;;;;11.00;10.00;;;;;-143.90;91.36;75426.50;4931822;28;102193;-75
2023/09/09 03:23:18;;;;;;;;;8.25;7.25;;;;;-143.90;91.24;75430.66;4924358;28;102343;-75
2023/09/09 03:25:44;;;;;;;;;11.00;9.00;;;;;-143.90;91.84;75434.78;4915269;28;108195;-74
2023/09/09 03:28:11;;;;;;;;;7.75;7.50;;;;;-143.90;92.27;75432.72;4919022;28;102385;-75
2023/09/09 03:30:59;;;;;;;;;6.25;6.00;;;;;-143.90;92.87;75441.00;4926427;28;102345;-74
2023/09/09 03:33:27;;;;;;;;;11.25;11.25;;;;;-143.90;94.70;75453.41;4935079;28;102122;-74
2023/09/09 03:35:54;;;;;;;;;18.75;18.25;;;;;-143.90;96.29;75469.94;4915924;28;104338;-74
2023/09/09 03:38:21;;;;;;;;;16.00;12.50;;;;;-143.90;96.52;75467.88;4934417;28;102464;-74
2023/09/09 03:40:47;;;;;;;;;8.00;7.00;;;;;-143.90;96.01;75474.06;4931550;28;101946;-74
2023/09/09 03:43:14;;;;;;;;;15.00;12.75;;;;;-143.90;95.92;75463.72;4934763;28;101926;-75
2023/09/09 03:45:41;;;;;;;;;13.25;11.75;;;;;-143.90;95.66;75474.06;4910673;28;103299;-75
2023/09/09 03:48:08;;;;;;;;;6.00;6.00;;;;;-143.90;95.49;75469.94;4932814;28;102043;-75
2023/09/09 03:50:35;;;;;;;;;13.00;10.75;;;;;-143.90;93.83;75465.81;4929775;28;103017;-74
2023/09/09 03:53:02;;;;;;;;;14.25;13.25;;;;;-143.90;93.89;75465.81;4949851;28;102160;-74
2023/09/09 03:55:29;;;;;;;;;7.00;7.00;;;;;-143.90;93.01;75472.00;4929528;28;103653;-74
2023/09/09 03:57:56;;;;;;;;;9.00;8.25;;;;;-143.90;92.90;75472.00;4933629;28;102432;-74
2023/09/09 04:00:23;;;;;;;;;7.75;7.00;;;;;-143.90;92.73;75478.22;4930446;28;102365;-74
2023/09/09 04:02:50;;;;;;;;;9.75;9.00;;;;;-143.90;93.14;75490.63;4931545;28;103185;-74
2023/09/09 04:05:17;;;;;;;;;11.50;9.75;;;;;-143.90;93.83;75490.63;4929292;28;104055;-74
2023/09/09 04:07:44;;;;;;;;;7.50;6.75;;;;;-143.90;93.67;75484.41;4929987;28;103140;-74
2023/09/09 04:10:13;;;;;;;;;10.00;9.00;;;;;-143.90;93.50;75486.47;4932822;28;103120;-74
2023/09/09 04:12:40;;;;;;;;;7.00;7.00;;;;;-143.90;93.16;75486.47;4906508;28;102458;-75
2023/09/09 04:15:08;;;;;;;;;10.00;10.00;;;;;-143.90;92.72;75482.34;4942303;28;103355;-74
2023/09/09 04:17:35;;;;;;;;;8.00;8.00;;;;;-143.90;92.78;75490.63;4927483;28;103832;-75
2023/09/09 04:20:03;;;;;;;;;10.00;9.00;;;;;-143.90;93.11;75494.75;4928618;28;102176;-74
2023/09/09 04:22:30;;;;;;;;;10.00;8.00;;;;;-143.90;93.29;75490.63;4930968;28;103533;-74
2023/09/09 04:24:57;;;;;;;;;2.75;2.75;;;;;-143.90;93.76;75486.47;4925853;28;103975;-75
2023/09/09 04:27:25;;;;;;;;;5.50;5.00;;;;;-143.90;93.96;75486.47;4930466;28;102275;-75
2023/09/09 04:29:52;;;;;;;;;4.75;3.50;;;;;-143.90;93.43;75490.63;4931749;28;102160;-75
2023/09/09 04:32:19;;;;;;;;;8.25;7.25;;;;;-143.90;93.79;75486.47;4927098;28;102356;-75
2023/09/09 04:34:45;;;;;;;;;10.25;10.00;;;;;-143.90;94.37;75490.63;4913825;28;105666;-75
2023/09/09 04:37:14;;;;;;;;;12.25;9.50;;;;;-143.90;94.93;75490.63;4908538;28;102040;-75
2023/09/09 04:39:40;;;;;;;;;10.25;8.25;;;;;-143.90;94.70;75480.28;4930901;28;103412;-75
2023/09/09 04:42:07;;;;;;;;;5.50;4.00;;;;;-143.90;95.24;75484.41;4914460;28;106124;-75
2023/09/09 04:44:34;;;;;;;;;12.75;11.25;;;;;-143.90;96.67;75490.63;4910401;28;104076;-75
2023/09/09 04:47:01;;;;;;;;;14.00;12.50;;;;;-143.90;96.69;75486.47;4905796;28;103921;-75
2023/09/09 04:49:30;;;;;;;;;11.25;9.75;;;;;-143.90;96.30;75484.41;4929788;28;102587;-75
2023/09/09 04:51:57;;;;;;;;;11.00;8.50;;;;;-143.90;96.95;75478.22;4927652;28;102033;-75
2023/09/09 04:54:23;;;;;;;;;10.00;9.00;;;;;-143.90;97.63;75484.41;4926137;28;104069;-75
2023/09/09 04:56:50;;;;;;;;;15.25;14.50;;;;;-143.90;97.97;75474.06;4910642;28;103588;-75
2023/09/09 04:59:17;;;;;;;;;19.25;17.75;;;;;-143.90;99.06;75478.22;4924509;28;102333;-75
2023/09/09 05:01:43;;;;;;;;;18.50;16.25;;;;;-143.90;99.17;75472.00;4929809;28;102523;-75
2023/09/09 05:04:10;;;;;;;;;12.00;12.00;;;;;-143.90;99.48;75469.94;4912562;28;103368;-75
2023/09/09 05:06:37;;;;;;;;;13.00;11.25;;;;;-143.90;99.00;75461.66;4925124;28;101841;-75
2023/09/09 05:09:03;;;;;;;;;13.25;13.00;;;;;-143.90;99.03;75461.66;4920403;28;102370;-75
2023/09/09 05:11:30;;;;;;;;;12.00;11.25;;;;;-143.90;99.51;75443.06;4906378;28;103168;-75
2023/09/09 05:13:57;;;;;;;;;10.25;9.50;;;;;-143.90;99.45;75436.84;4928975;28;104334;-75
2023/09/09 05:16:23;;;;;;;;;12.25;10.75;;;;;-143.90;99.21;75428.59;4932466;28;102329;-75
2023/09/09 05:18:50;;;;;;;;;9.25;7.75;;;;;-143.90;98.70;75412.03;4926906;28;102196;-75
2023/09/09 05:21:17;;;;;;;;;8.00;7.75;;;;;-143.90;98.67;75399.63;4939979;28;104715;-73
2023/09/09 05:23:44;;;;;;;;;10.25;9.75;;;;;-143.90;99.04;75391.38;4921021;28;104083;-74
2023/09/09 05:26:10;;;;;;;;;4.50;4.50;;;;;-143.90;99.39;75378.97;4926558;28;102678;-75
2023/09/09 05:28:37;;;;;;;;;6.25;5.25;;;;;-143.90;99.36;75368.63;4948438;28;102366;-75
2023/09/09 05:31:06;;;;;;;;;7.75;7.75;;;;;-143.90;99.53;75347.94;4932208;28;102554;-75
2023/09/09 05:33:32;;;;;;;;;8.75;7.00;;;;;-143.90;99.32;75333.47;4928989;28;103715;-75
2023/09/09 05:35:59;;;;;;;;;5.75;5.75;;;;;-143.90;99.24;75323.16;4930043;28;102530;-75
2023/09/09 05:38:26;;;;;;;;;5.75;5.75;;;;;-143.90;98.48;75312.81;4930436;28;102541;-75
2023/09/09 05:40:53;;;;;;;;;8.25;5.75;;;;;-143.90;98.85;75300.41;4928030;28;102341;-75
2023/09/09 05:43:20;;;;;;;;;8.25;8.25;;;;;-143.90;98.92;75279.72;4929067;28;103518;-75
2023/09/09 05:45:47;;;;;;;;;13.00;11.50;;;;;-143.90;98.59;75267.31;4935084;28;101942;-75
2023/09/09 05:48:14;;;;;;;;;11.00;9.00;;;;;-143.90;98.25;75248.72;4930261;28;102221;-75
2023/09/09 05:50:43;;;;;;;;;11.00;11.00;;;;;-143.90;98.14;75225.97;4929109;28;102359;-75
2023/09/09 05:53:09;;;;;;;;;8.75;8.50;;;;;-143.90;97.67;75207.38;4936833;28;104242;-75
2023/09/09 05:55:36;;;;;;;;;6.25;5.75;;;;;-143.90;97.50;75178.41;4928533;28;103889;-74
2023/09/09 05:58:04;;;;;;;;;12.50;11.25;;;;;-143.90;96.55;75145.34;4929086;28;102343;-75
2023/09/09 06:00:30;;;;;;;;;9.00;9.00;;;;;-143.90;95.47;75118.47;4926564;28;103181;-74
2023/09/09 06:02:57;;;;;;;;;12.25;11.25;;;;;-143.90;94.83;75089.53;4925735;28;104108;-75
2023/09/09 06:05:24;;;;;;;;;12.25;11.25;;;;;-143.90;94.65;75072.97;4927042;28;101923;-75
2023/09/09 06:07:50;;;;;;;;;14.75;13.75;;;;;-143.90;93.86;75048.19;4928692;28;102331;-75
2023/09/09 06:10:17;;;;;;;;;11.25;11.25;;;;;-143.90;93.01;75019.22;4929601;28;102296;-75
2023/09/09 06:12:44;;;;;;;;;14.25;13.50;;;;;-143.90;91.92;74990.28;4927515;28;111058;-74
2023/09/09 06:15:10;;;;;;;;;9.00;8.25;;;;;-143.90;91.37;74967.56;4930960;28;102674;-75
2023/09/09 06:17:39;;;;;;;;;13.50;11.25;;;;;-143.90;90.61;74955.16;4927228;28;102316;-75
2023/09/09 06:20:07;;;;;;;;;12.75;12.75;;;;;-143.90;89.92;74932.41;4929953;28;102484;-75
2023/09/09 06:22:34;;;;;;;;;10.75;10.00;;;;;-143.90;90.85;74911.72;4926969;28;103399;-75
2023/09/09 06:25:01;;;;;;;;;16.50;16.50;;;;;-143.90;89.12;74878.66;4924578;28;102474;-74
2023/09/09 06:27:28;;;;;;;;;19.00;18.75;;;;;-143.90;87.89;74837.31;4929108;28;102566;-75
2023/09/09 06:29:54;;;;;;;;;28.00;24.25;;;;;-143.90;86.55;74800.09;4930280;28;102467;-75
2023/09/09 06:32:21;;;;;;;;;28.50;26.25;;;;;-143.90;86.59;74767.03;4920702;28;103534;-74
2023/09/09 06:34:49;;;;;;;;;35.25;31.25;;;;;-143.90;86.17;74725.69;2622808;28;10106171;-75
2023/09/09 06:37:15;;;;;;;;;31.25;28.25;;;;;-143.90;83.03;74692.63;4929552;28;103306;-75
2023/09/09 06:39:42;;;;;;;;;33.75;31.75;;;;;-143.90;83.45;74661.59;4930469;28;102281;-74
2023/09/09 06:42:09;;;;;;;;;24.50;22.75;;;;;-143.90;80.23;74638.88;4933684;28;102613;-75
2023/09/09 06:44:35;;;;;;;;;25.00;24.00;;;;;-143.90;78.43;74636.81;4923386;28;102424;-75
2023/09/09 06:47:02;;;;;;;;;23.50;21.75;;;;;-143.90;77.71;74609.94;4925289;28;104108;-76
2023/09/09 06:49:29;;;;;;;;;24.75;24.00;;;;;-143.90;78.47;74576.84;4925004;28;102319;-72
2023/09/09 06:51:55;;;;;;;;;25.50;24.25;;;;;-143.90;78.52;74562.38;4921098;28;102619;-74
2023/09/09 06:54:22;;;;;;;;;25.25;24.50;;;;;-143.90;77.72;74539.66;4927876;28;102428;-76
2023/09/09 06:56:49;;;;;;;;;24.00;22.75;;;;;-143.90;76.40;74535.50;4926071;28;103795;-75
2023/09/09 06:59:15;;;;;;;;;23.75;22.75;;;;;-143.90;75.49;74539.66;4930650;28;102259;-75
2023/09/09 07:01:42;;;;;;;;;21.25;20.00;;;;;-143.90;77.10;74529.31;4927765;28;102017;-73
2023/09/09 07:04:08;;;;;;;;;24.75;23.00;;;;;-143.90;75.56;74533.44;4931868;28;103574;-76
2023/09/09 07:06:35;;;;;;;;;24.75;23.00;;;;;-143.90;77.24;74529.31;4930213;28;104190;-75
2023/09/09 07:09:02;;;;;;;;;18.67;16.00;;;;;-143.90;76.06;74518.97;4930577;28;102766;-75
2023/09/09 07:11:29;;;;;;;;;20.50;18.75;;;;;-143.90;77.90;74523.09;4930609;28;102137;-73
2023/09/09 07:13:56;;;;;;;;;20.00;18.00;;;;;-143.90;79.07;74516.91;4927318;28;102165;-74
2023/09/09 07:16:22;;;;;;;;;41.00;34.50;;;;;-143.90;77.76;74527.25;4925081;28;105028;-75
2023/09/09 07:18:49;;;;;;;;;23.75;23.00;;;;;-143.90;76.58;74510.72;4929021;28;102438;-75
2023/09/09 07:21:16;;;;;;;;;27.25;23.25;;;;;-143.90;77.85;74521.03;4946411;28;102135;-75
2023/09/09 07:23:43;;;;;;;;;23.00;21.00;;;;;-143.90;78.25;74502.44;4943938;28;103014;-74
2023/09/09 07:26:09;;;;;;;;;20.00;19.00;;;;;-143.90;76.90;74523.09;4931553;28;104669;-75
2023/09/09 07:28:36;;;;;;;;;15.67;15.67;;;;;-143.90;77.45;74485.91;4922131;28;101998;-75
2023/09/09 07:31:04;;;;;;;;;16.00;16.00;;;;;-143.90;77.86;74461.09;4923759;28;102169;-74
2023/09/09 07:33:31;;;;;;;;;13.67;13.33;;;;;-143.90;77.49;74440.44;4928431;28;102345;-75
2023/09/09 07:35:57;;;;;;;;;25.67;23.33;;;;;-143.90;77.04;74446.63;4924782;28;104530;-75
2023/09/09 07:38:24;;;;;;;;;21.00;20.75;;;;;-143.90;76.57;74434.22;4922143;28;102319;-75
2023/09/09 07:40:57;;;;;;;;;27.50;26.25;;;;;-143.90;76.40;74440.44;4924792;28;102860;-76
2023/09/09 07:43:24;;;;;;;;;17.50;16.75;;;;;-143.90;77.63;74419.75;4922844;28;103596;-76
2023/09/09 07:45:51;;;;;;;;;17.67;17.00;;;;;-143.90;78.22;74392.88;4922104;28;103795;-76
2023/09/09 07:48:18;;;;;;;;;34.00;29.75;;;;;-143.90;75.02;74382.56;4923822;28;103850;-76
2023/09/09 07:50:52;;;;;;;;;21.67;20.33;;;;;-143.90;76.20;74339.16;4928383;28;102078;-74
2023/09/09 07:53:20;;;;;;;;;16.67;16.00;;;;;-143.90;75.05;74316.41;4928100;28;104426;-76
2023/09/09 07:55:49;;;;;;;;;15.67;15.67;;;;;-143.90;74.08;74279.22;4932999;28;108617;-75
2023/09/09 07:58:17;;;;;;;;;15.33;14.00;;;;;-143.90;73.88;74250.25;4931633;28;101994;-75
2023/09/09 08:00:45;;;;;;;;;19.67;18.67;;;;;-143.90;69.15;74260.59;4925422;28;103681;-75
2023/09/09 08:03:12;;;;;;;;;24.00;23.67;;;;;-143.90;71.29;74266.81;4932829;28;102866;-75
2023/09/09 08:05:40;;;;;;;;;23.67;19.67;;;;;-143.90;70.23;74270.94;4923662;28;104122;-75
2023/09/09 08:08:07;;;;;;;;;18.67;18.67;;;;;-143.90;71.77;74237.88;4930112;28;102470;-75
2023/09/09 08:10:34;;;;;;;;;14.67;14.00;;;;;-143.90;71.33;74208.94;4927234;28;103395;-75
2023/09/09 08:13:01;;;;;;;;;14.00;13.67;;;;;-143.90;68.91;74192.41;4931016;28;103516;-76
2023/09/09 08:15:28;;;;;;;;;18.00;15.00;;;;;-143.90;69.26;74165.53;4913968;28;104943;-76
2023/09/09 08:18:06;;;;;;;;;22.33;20.00;;;;;-143.90;67.35;74186.19;4927875;28;102125;-75
2023/09/09 08:20:33;;;;;;;;;26.33;25.67;;;;;-143.90;64.60;74204.78;4927875;28;102410;-75
2023/09/09 08:22:59;;;;;;;;;30.33;28.00;;;;;-143.90;67.32;74213.06;4930451;28;102184;-75
2023/09/09 08:25:26;;;;;;;;;26.00;24.33;;;;;-143.90;65.62;74208.94;4927537;28;104210;-75
2023/09/09 08:27:53;;;;;;;;;26.33;25.00;;;;;-143.90;66.93;74223.41;4922022;28;102203;-75
2023/09/09 08:30:19;;;;;;;;;17.33;16.00;;;;;-143.90;67.94;74184.13;4931023;28;102407;-75
2023/09/09 08:32:46;;;;;;;;;19.00;15.00;;;;;-143.90;65.24;74171.72;4936276;28;103260;-75
2023/09/09 08:35:13;;;;;;;;;23.00;22.00;;;;;-143.90;67.28;74151.06;4933532;28;104331;-75
2023/09/09 08:37:40;;;;;;;;;19.00;15.67;;;;;-143.90;66.47;74118.00;4929037;28;102823;-75
2023/09/09 08:40:08;;;;;;;;;15.33;14.00;;;;;-143.90;65.27;74091.13;4924123;28;102802;-75
2023/09/09 08:42:56;;;;;;;;;14.33;12.00;;;;;-143.90;63.64;74068.38;4932019;28;102002;-75
2023/09/09 08:45:52;;;;;;;;;13.67;11.67;;;;;-143.90;62.53;74037.38;4926801;28;108781;-75
2023/09/09 08:48:20;;;;;;;;;9.33;8.00;;;;;-143.90;60.75;74014.66;4929112;28;102355;-74
2023/09/09 08:50:50;;;;;;;;;9.67;8.33;;;;;-143.90;62.44;73993.97;4932877;28;102481;-74
2023/09/09 08:53:17;;;;;;;;;10.00;10.00;;;;;-143.90;62.12;73977.44;4924979;28;103369;-74
2023/09/09 08:55:45;;;;;;;;;9.00;7.33;;;;;-143.90;60.17;73965.03;4930799;28;110861;-74
2023/09/09 08:58:11;;;;;;;;;9.33;8.00;;;;;-143.90;59.64;73954.72;4927897;28;102802;-75
2023/09/09 09:00:39;;;;;;;;;8.00;8.00;;;;;-143.90;56.88;73948.50;4923542;28;102591;-74
2023/09/09 09:03:06;;;;;;;;;7.67;7.67;;;;;-143.90;56.07;73934.03;4938252;28;102310;-75
2023/09/09 09:05:33;;;;;;;;;9.00;9.00;;;;;-143.90;57.45;73938.19;4922990;28;103007;-78
2023/09/09 09:08:01;;;;;;;;;8.00;7.00;;;;;-143.90;58.28;73921.63;4923139;28;102302;-75
2023/09/09 09:10:27;;;;;;;;;7.00;7.00;;;;;-143.90;56.12;73903.03;4925660;28;102760;-74
2023/09/09 09:12:54;;;;;;;;;10.00;8.00;;;;;-143.90;56.77;73907.16;4930774;28;102133;-74
2023/09/09 09:15:21;;;;;;;;;9.00;8.00;;;;;-143.90;54.00;73890.63;4931592;28;104332;-74
2023/09/09 09:17:48;;;;;;;;;8.00;7.00;;;;;-143.90;54.77;73878.25;4936688;28;101933;-73
2023/09/09 09:20:27;;;;;;;;;5.00;3.00;;;;;-143.90;55.20;73865.84;4928039;28;102492;-75
2023/09/09 09:23:15;;;;;;;;;9.00;8.00;;;;;-143.90;52.60;73861.69;4921650;28;102278;-74
2023/09/09 09:25:44;;;;;;;;;7.00;6.67;;;;;-143.90;54.38;73849.31;4927171;28;105680;-76
2023/09/09 09:28:15;;;;;;;;;7.67;7.00;;;;;-143.90;53.76;73849.31;4924459;28;102405;-75
2023/09/09 09:30:42;;;;;;;;;6.67;6.33;;;;;-143.90;53.00;73836.91;4945621;28;102563;-74
2023/09/09 09:33:09;;;;;;;;;5.00;5.00;;;;;-143.90;52.36;73826.56;4925405;28;103649;-75
2023/09/09 09:35:38;;;;;;;;;7.00;7.00;;;;;-143.90;52.09;73826.56;4927794;28;104221;-74
2023/09/09 09:38:09;;;;;;;;;6.00;6.00;;;;;-143.90;51.15;73828.63;4921018;28;102854;-73
2023/09/09 09:40:38;;;;;;;;;12.67;12.33;;;;;-143.90;52.05;73824.50;4929447;28;102323;-74
2023/09/09 09:43:17;;;;;;;;;15.00;14.00;;;;;-143.90;51.31;73832.78;4923315;28;102037;-74
2023/09/09 09:45:44;;;;;;;;;11.67;11.67;;;;;-143.90;51.67;73836.91;4929449;28;104249;-74
2023/09/09 09:48:10;;;;;;;;;9.33;9.00;;;;;-143.90;51.69;73822.44;4926185;28;102561;-74
2023/09/09 09:50:37;;;;;;;;;7.00;6.00;;;;;-143.90;50.67;73812.09;4922762;28;102295;-75
2023/09/09 09:53:06;;;;;;;;;9.67;8.33;;;;;-143.90;50.94;73803.84;4931170;28;102526;-74
2023/09/09 09:55:35;;;;;;;;;10.67;10.67;;;;;-143.90;51.23;73795.56;4932522;28;104233;-74
2023/09/09 09:58:07;;;;;;;;;7.33;7.00;;;;;-143.90;51.70;73783.16;4932976;28;102387;-74
2023/09/09 10:00:34;;;;;;;;;11.00;10.33;;;;;-143.90;52.00;73781.09;4933302;28;103648;-74
2023/09/09 10:03:05;;;;;;;;;8.33;8.33;;;;;-143.90;51.17;73772.84;4925487;28;102402;-75
2023/09/09 10:05:33;;;;;;;;;11.00;11.00;;;;;-143.90;51.35;73807.97;4933215;28;104663;-75
2023/09/09 10:08:35;;;;;;;;;15.00;13.67;;;;;-143.90;52.63;73791.44;4931754;28;102009;-75
2023/09/09 10:11:05;;;;;;;;;13.00;12.00;;;;;-143.90;50.78;73768.69;4879178;28;102641;-75
2023/09/09 10:13:48;;;;;;;;;12.00;11.00;;;;;-143.90;48.89;73754.25;4947510;28;102330;-75
2023/09/09 10:16:17;;;;;;;;;10.67;9.00;;;;;-143.90;48.79;73752.16;4928378;28;108776;-75
2023/09/09 10:18:44;;;;;;;;;14.33;13.67;;;;;-143.90;51.03;73745.97;4930227;28;103607;-75
2023/09/09 10:21:12;;;;;;;;;14.33;13.33;;;;;-143.90;49.87;73758.38;4926556;28;101948;-75
2023/09/09 10:23:45;;;;;;;;;13.67;13.67;;;;;-143.90;49.38;73766.63;4939982;28;102364;-76
2023/09/09 10:26:13;;;;;;;;;11.33;11.00;;;;;-143.90;50.54;73741.84;4923718;28;104251;-75
2023/09/09 10:28:41;;;;;;;;;14.00;14.00;;;;;-143.90;50.88;73733.56;4930020;28;103576;-75
2023/09/09 10:31:12;;;;;;;;;11.67;11.33;;;;;-143.90;49.06;73737.69;4929563;28;102058;-75
2023/09/09 10:33:42;;;;;;;;;10.67;9.67;;;;;-143.90;50.71;73723.22;4912673;28;106271;-75
2023/09/09 10:36:09;;;;;;;;;22.67;20.67;;;;;-143.90;50.57;73756.31;4921531;28;104555;-75
2023/09/09 10:38:36;;;;;;;;;17.67;16.67;;;;;-143.90;53.26;73745.97;4907198;28;102894;-76
2023/09/09 10:41:04;;;;;;;;;12.33;10.00;;;;;-143.90;53.29;73739.78;4913035;28;102125;-76
2023/09/09 10:43:31;;;;;;;;;11.00;11.00;;;;;-143.90;50.70;73729.44;4930196;28;103050;-76
2023/09/09 10:45:57;;;;;;;;;7.67;6.67;;;;;-143.90;50.74;73714.97;4916397;28;105191;-76
2023/09/09 10:48:24;;;;;;;;;9.00;8.33;;;;;-143.90;51.01;73710.84;4923789;28;102339;-76
2023/09/09 10:50:52;;;;;;;;;13.00;10.67;;;;;-143.90;51.58;73700.50;4928772;28;102017;-74
2023/09/09 10:53:20;;;;;;;;;12.00;12.00;;;;;-143.90;51.55;73700.50;4927549;28;102434;-74
2023/09/09 10:55:47;;;;;;;;;11.33;11.00;;;;;-143.90;50.48;73694.31;4916341;28;104174;-76
2023/09/09 10:58:16;;;;;;;;;12.00;10.00;;;;;-143.90;50.77;73681.91;4911958;28;103620;-75
2023/09/09 11:00:48;;;;;;;;;8.00;8.00;;;;;-143.90;48.65;73679.84;4921124;28;103095;-75
2023/09/09 11:03:17;;;;;;;;;8.67;8.67;;;;;-143.90;48.03;73679.84;4927660;28;102093;-75